Time;durP1;ratioP1;P1;durP2;ratioP2;P2;SDS_P1;SDS_P2;PMS_P1;PMS_P2;Temp;Humidity;BMP_temperature;BMP_pressure;BME280_temperature;BME280_humidity;BME280_pressure;Samples;Min_cycle;Max_cycle;Signal;HPM_P1;HPM_P2
2022/01/13 00:01:11;;;;;;;55.38;33.45;;;;;;;-0.63;67.15;100696.53;5092262;28;20028;-47
2022/01/13 00:03:37;;;;;;;49.83;33.25;;;;;;;-0.75;67.87;100692.03;5093507;28;20020;-49
2022/01/13 00:06:03;;;;;;;49.80;29.75;;;;;;;-0.79;68.30;100697.41;5093425;28;20490;-47
2022/01/13 00:08:29;;;;;;;46.03;31.73;;;;;;;-0.91;68.05;100696.28;5093113;28;20024;-49
2022/01/13 00:10:56;;;;;;;45.45;29.45;;;;;;;-0.82;69.23;100695.84;5093310;28;20028;-49
2022/01/13 00:13:25;;;;;;;48.50;31.35;;;;;;;-0.74;68.59;100698.03;5093323;28;20027;-49
2022/01/13 00:16:23;;;;;;;49.90;33.15;;;;;;;-0.83;68.82;100696.72;5093254;28;20032;-48
2022/01/13 00:18:49;;;;;;;46.97;30.45;;;;;;;-0.94;69.41;100679.25;5093135;28;20032;-49
2022/01/13 00:21:40;;;;;;;49.28;29.10;;;;;;;-0.66;68.56;100677.84;5093244;28;20066;-49
2022/01/13 00:24:04;;;;;;;47.03;26.80;;;;;;;-0.61;67.90;100689.56;5092626;28;20043;-47
2022/01/13 00:26:32;;;;;;;118.13;76.43;;;;;;;-0.61;68.18;100688.72;5093065;28;20032;-49
2022/01/13 00:29:02;;;;;;;63.58;44.30;;;;;;;-0.52;68.41;100690.84;5092703;28;20059;-48
2022/01/13 00:31:32;;;;;;;103.40;72.35;;;;;;;-0.30;67.90;100690.56;5092927;28;20551;-47
2022/01/13 00:34:01;;;;;;;47.83;30.05;;;;;;;-0.12;67.82;100680.16;5093063;28;20062;-48
2022/01/13 00:36:37;;;;;;;49.95;28.73;;;;;;;-0.19;66.73;100678.84;5093058;28;20073;-48
2022/01/13 00:39:07;;;;;;;49.67;28.30;;;;;;;-0.25;66.51;100677.41;5092864;28;20521;-48
2022/01/13 00:41:34;;;;;;;43.97;25.92;;;;;;;-0.30;66.38;100672.50;5092835;28;20119;-47
2022/01/13 00:44:02;;;;;;;43.03;26.75;;;;;;;-0.42;66.51;100673.16;5092778;28;20024;-50
2022/01/13 00:46:40;;;;;;;44.30;26.85;;;;;;;-0.45;67.00;100658.66;5091373;28;20034;-48
2022/01/13 00:49:06;;;;;;;41.90;28.35;;;;;;;-0.49;67.17;100664.88;5093051;28;20028;-48
2022/01/13 00:51:32;;;;;;;45.42;27.75;;;;;;;-0.52;67.46;100657.31;5092488;28;20031;-47
2022/01/13 00:54:03;;;;;;;44.63;27.75;;;;;;;-0.46;67.18;100662.16;5091303;28;20081;-47
2022/01/13 00:56:30;;;;;;;46.13;28.23;;;;;;;-0.37;67.11;100666.00;5092575;28;20055;-47
2022/01/13 00:58:56;;;;;;;42.28;28.17;;;;;;;-0.27;67.33;100668.91;5092517;28;20055;-48
2022/01/13 01:01:22;;;;;;;49.22;29.33;;;;;;;-0.21;67.21;100668.59;5092453;28;20523;-48
2022/01/13 01:03:48;;;;;;;43.65;28.90;;;;;;;-0.30;66.64;100669.94;5092437;28;20099;-49
2022/01/13 01:06:14;;;;;;;45.15;28.55;;;;;;;-0.41;66.81;100677.38;5092419;28;20024;-48
2022/01/13 01:08:40;;;;;;;42.45;28.92;;;;;;;-0.35;66.87;100676.22;5092315;28;20024;-49
2022/01/13 01:11:06;;;;;;;42.50;28.80;;;;;;;-0.31;66.91;100670.81;5092211;28;20520;-48
2022/01/13 01:13:34;;;;;;;46.97;30.50;;;;;;;-0.40;66.49;100676.50;5092270;28;20107;-50
2022/01/13 01:16:05;;;;;;;44.33;28.40;;;;;;;-0.63;66.19;100678.50;5090962;28;20031;-47
2022/01/13 01:28:51;;;;;;;43.88;30.08;;;;;;;0.36;64.83;100681.81;5092369;28;20031;-48
2022/01/13 01:31:25;;;;;;;48.85;29.38;;;;;;;0.17;65.15;100676.84;5091809;28;20109;-48
2022/01/13 01:34:03;;;;;;;52.60;36.25;;;;;;;0.14;65.27;100677.00;5092071;28;20127;-49
2022/01/13 01:36:31;;;;;;;48.17;28.58;;;;;;;0.13;65.48;100671.94;5092014;28;20035;-50
2022/01/13 01:38:58;;;;;;;46.95;27.25;;;;;;;0.03;65.04;100684.50;5091947;28;20020;-49
2022/01/13 01:41:24;;;;;;;43.13;27.95;;;;;;;0.02;65.75;100690.59;5090583;28;20032;-47
2022/01/13 01:43:51;;;;;;;49.28;31.52;;;;;;;0.07;65.61;100686.00;5091851;28;20027;-48
2022/01/13 01:46:17;;;;;;;45.97;29.65;;;;;;;0.03;65.13;100694.00;5091846;28;20478;-49
2022/01/13 01:48:43;;;;;;;48.63;34.58;;;;;;;0.12;65.53;100686.59;5091825;28;20091;-49
2022/01/13 01:51:09;;;;;;;43.60;27.10;;;;;;;0.31;65.48;100691.56;5091738;28;20024;-48
2022/01/13 01:53:35;;;;;;;39.58;27.52;;;;;;;0.37;65.33;100682.66;5091779;28;20016;-48
2022/01/13 01:56:01;;;;;;;43.45;28.02;;;;;;;0.41;64.81;100689.31;5091789;28;20589;-49
2022/01/13 01:58:27;;;;;;;43.78;27.63;;;;;;;0.44;64.48;100694.28;5090442;28;20055;-48
2022/01/13 02:00:55;;;;;;;43.25;28.75;;;;;;;0.41;64.69;100691.91;5091682;28;20030;-48
2022/01/13 02:03:24;;;;;;;40.70;27.50;;;;;;;0.37;63.98;100685.25;5091634;28;20489;-49
2022/01/13 02:05:49;;;;;;;42.33;26.90;;;;;;;0.39;64.58;100680.81;5091639;28;20494;-48
2022/01/13 02:08:15;;;;;;;39.47;27.42;;;;;;;0.49;64.27;100684.53;5091608;28;20063;-48
2022/01/13 02:10:44;;;;;;;40.95;26.73;;;;;;;0.47;63.68;100678.63;5091543;28;20028;-48
2022/01/13 02:13:12;;;;;;;41.35;26.60;;;;;;;0.47;64.34;100668.31;5090299;28;20081;-48
2022/01/13 02:18:23;;;;;;;34.88;22.83;;;;;;;0.37;63.33;100660.22;5091631;28;20124;-49
2022/01/13 02:20:54;;;;;;;35.42;23.23;;;;;;;0.29;63.10;100665.00;5091542;28;20055;-49
2022/01/13 02:23:38;;;;;;;37.47;23.27;;;;;;;0.15;63.06;100670.09;5090261;28;20035;-49
2022/01/13 02:26:10;;;;;;;35.03;22.67;;;;;;;0.01;63.87;100668.28;5090470;28;20118;-49
2022/01/13 02:28:36;;;;;;;35.97;24.25;;;;;;;0.10;64.13;100667.78;5090214;28;20036;-47
2022/01/13 02:31:03;;;;;;;42.33;25.20;;;;;;;0.27;64.52;100671.19;5093250;28;20055;-47
2022/01/13 02:33:29;;;;;;;40.92;27.02;;;;;;;0.29;63.76;100679.66;5094005;28;20028;-49
2022/01/13 02:35:55;;;;;;;40.72;25.38;;;;;;;0.19;63.99;100672.41;5093904;28;20078;-48
2022/01/13 02:38:21;;;;;;;49.15;28.05;;;;;;;0.16;63.56;100669.16;5095215;28;20051;-50
2022/01/13 02:40:54;;;;;;;46.55;28.80;;;;;;;0.26;64.22;100660.00;5093853;28;20055;-48
2022/01/13 02:43:20;;;;;;;43.55;25.13;;;;;;;0.48;63.59;100671.72;5095134;28;20081;-49
2022/01/13 02:46:03;;;;;;;48.00;31.33;;;;;;;0.53;63.29;100662.78;5095088;28;20548;-48
2022/01/13 02:48:30;;;;;;;37.63;25.33;;;;;;;0.62;63.79;100663.19;5095045;28;20028;-49
2022/01/13 02:51:00;;;;;;;39.88;25.08;;;;;;;0.61;62.78;100666.69;5094918;28;20023;-51
2022/01/13 02:53:27;;;;;;;41.70;25.63;;;;;;;0.41;62.75;100663.47;5093593;28;20028;-48
2022/01/13 02:56:02;;;;;;;38.83;24.23;;;;;;;0.27;63.10;100669.41;5094926;28;20016;-48
2022/01/13 02:58:28;;;;;;;39.50;25.67;;;;;;;0.16;63.31;100664.84;5094857;28;20494;-49
2022/01/13 03:00:54;;;;;;;38.83;26.20;;;;;;;0.11;63.79;100658.28;5093438;28;20028;-48
2022/01/13 03:03:20;;;;;;;41.05;24.52;;;;;;;0.04;62.91;100656.94;5094800;28;20109;-48
2022/01/13 03:05:46;;;;;;;39.53;24.48;;;;;;;-0.03;63.21;100667.59;5093337;28;20031;-50
2022/01/13 03:08:12;;;;;;;37.13;23.77;;;;;;;-0.05;63.45;100651.34;5110340;28;20111;-49
2022/01/13 03:10:38;;;;;;;42.22;25.80;;;;;;;-0.07;63.47;100654.94;5093188;28;20111;-49
2022/01/13 03:13:06;;;;;;;44.90;26.70;;;;;;;-0.18;63.23;100650.38;5094853;28;20385;-47
2022/01/13 03:15:32;;;;;;;40.60;25.98;;;;;;;-0.37;63.35;100655.66;5094491;28;20436;-49
2022/01/13 03:17:58;;;;;;;45.55;27.58;;;;;;;-0.55;64.22;100654.06;5093170;28;20497;-49
2022/01/13 03:20:24;;;;;;;39.50;25.90;;;;;;;-0.56;64.87;100655.81;5094433;28;20034;-49
2022/01/13 03:22:49;;;;;;;42.13;26.80;;;;;;;-0.51;64.01;100655.56;5094360;28;20532;-49
2022/01/13 03:25:21;;;;;;;44.10;28.63;;;;;;;-0.62;64.48;100654.38;5094330;28;20811;-49
2022/01/13 03:27:52;;;;;;;47.95;31.98;;;;;;;-0.83;64.61;100664.03;5094378;28;20440;-49
2022/01/13 03:30:18;;;;;;;41.95;27.50;;;;;;;-0.88;64.97;100660.88;5093934;28;20044;-48
2022/01/13 03:32:44;;;;;;;44.75;26.27;;;;;;;-0.85;65.46;100659.88;5094208;28;20028;-48
2022/01/13 03:35:10;;;;;;;47.38;26.77;;;;;;;-0.69;65.94;100662.53;5094106;28;20485;-48
2022/01/13 03:37:35;;;;;;;42.83;27.52;;;;;;;-0.59;65.11;100665.47;5092682;28;20020;-49
2022/01/13 03:40:02;;;;;;;41.30;28.42;;;;;;;-0.67;64.64;100663.28;5093986;28;20055;-49
2022/01/13 03:42:27;;;;;;;46.67;29.98;;;;;;;-0.73;65.69;100671.31;5091989;28;20490;-48
2022/01/13 03:44:54;;;;;;;41.92;27.55;;;;;;;-0.61;65.42;100668.94;5092621;28;20034;-49
2022/01/13 03:47:21;;;;;;;46.05;27.98;;;;;;;-0.53;65.30;100675.44;5092468;28;20520;-48
2022/01/13 03:49:46;;;;;;;46.53;27.88;;;;;;;-0.59;64.80;100665.47;5093881;28;20020;-48
2022/01/13 03:52:24;;;;;;;42.78;28.17;;;;;;;-0.64;64.49;100665.69;5093663;28;20028;-49
2022/01/13 03:55:16;;;;;;;46.83;27.58;;;;;;;-0.69;64.70;100670.25;5093743;28;20024;-48
2022/01/13 03:58:06;;;;;;;42.65;26.63;;;;;;;-0.84;65.49;100662.41;5091786;28;20024;-49
2022/01/13 04:00:50;;;;;;;42.08;25.92;;;;;;;-0.79;64.99;100664.72;5092304;28;20492;-48
2022/01/13 04:03:16;;;;;;;41.55;25.77;;;;;;;-0.72;64.68;100667.84;5092185;28;20505;-49
2022/01/13 04:06:11;;;;;;;48.00;26.17;;;;;;;-0.68;65.54;100662.44;5092265;28;20031;-49
2022/01/13 04:08:37;;;;;;;46.20;25.33;;;;;;;-0.57;65.21;100668.78;5092320;28;20137;-50
2022/01/13 04:11:06;;;;;;;39.55;25.42;;;;;;;-0.53;65.08;100670.28;5092109;28;20030;-49
2022/01/13 04:14:26;;;;;;;43.10;25.63;;;;;;;-0.79;64.56;100667.31;5092146;28;20115;-47
2022/01/13 04:16:22;;;;;;;40.50;26.45;;;;;;;-0.87;65.16;100675.44;5082413;28;20503;-48
2022/01/13 04:18:49;;;;;;;42.85;27.02;;;;;;;-0.96;65.39;100675.91;5093567;28;20035;-50
2022/01/13 04:21:17;;;;;;;39.60;26.60;;;;;;;-0.94;65.73;100678.41;5093259;28;20029;-49
2022/01/13 04:23:44;;;;;;;39.05;25.35;;;;;;;-1.01;65.47;100673.56;5093239;28;20366;-50
2022/01/13 04:26:10;;;;;;;41.45;26.17;;;;;;;-0.99;65.68;100680.38;5091793;28;20397;-47
2022/01/13 04:28:37;;;;;;;40.60;24.25;;;;;;;-1.09;65.84;100675.66;5091806;28;20481;-49
2022/01/13 04:31:03;;;;;;;44.78;26.67;;;;;;;-1.00;65.75;100674.41;5092785;28;20044;-48
2022/01/13 04:33:33;;;;;;;41.85;26.50;;;;;;;-0.89;65.13;100677.25;5091706;28;20047;-47
2022/01/13 04:36:00;;;;;;;45.20;25.60;;;;;;;-0.79;64.94;100675.03;5091645;28;20039;-47
2022/01/13 04:38:27;;;;;;;36.90;24.73;;;;;;;-0.69;65.20;100678.00;5091679;28;20020;-48
2022/01/13 04:40:56;;;;;;;45.33;26.52;;;;;;;-0.66;64.96;100668.34;5091575;28;20166;-49
2022/01/13 04:43:24;;;;;;;43.50;25.10;;;;;;;-0.58;64.49;100667.97;5091464;28;20521;-48
2022/01/13 04:45:51;;;;;;;36.72;24.70;;;;;;;-0.58;65.20;100659.38;5091758;28;20035;-48
2022/01/13 04:48:17;;;;;;;42.42;27.15;;;;;;;-0.41;65.02;100667.06;5092714;28;20366;-48
2022/01/13 04:50:43;;;;;;;46.70;26.77;;;;;;;-0.48;64.38;100673.47;5091363;28;20028;-49
2022/01/13 04:53:10;;;;;;;40.63;25.02;;;;;;;-0.51;64.17;100671.88;5091077;28;20570;-48
2022/01/13 04:55:37;;;;;;;40.30;24.27;;;;;;;-0.52;64.29;100666.81;5090703;28;20020;-49
2022/01/13 04:58:05;;;;;;;41.90;25.40;;;;;;;-0.57;64.09;100667.03;5092601;28;20019;-49
2022/01/13 05:00:33;;;;;;;47.97;27.83;;;;;;;-0.58;64.19;100667.09;5091129;28;20024;-48
2022/01/13 05:02:59;;;;;;;48.33;25.73;;;;;;;-0.70;64.28;100673.75;5091213;28;20047;-49
2022/01/13 05:05:26;;;;;;;41.58;25.75;;;;;;;-0.69;64.33;100671.06;5091102;28;20396;-49
2022/01/13 05:07:53;;;;;;;45.30;24.58;;;;;;;-0.67;63.96;100666.69;5092371;28;20016;-48
2022/01/13 05:10:19;;;;;;;40.15;25.52;;;;;;;-0.73;64.08;100664.41;5090980;28;20123;-48
2022/01/13 05:12:48;;;;;;;42.83;26.33;;;;;;;-0.86;64.14;100665.97;5090973;28;20523;-49
2022/01/13 05:15:21;;;;;;;36.22;23.95;;;;;;;-0.94;64.36;100670.69;5090959;28;20457;-48
2022/01/13 05:20:26;;;;;;;37.25;22.58;;;;;;;-0.94;64.93;100662.94;5092204;28;20032;-49
2022/01/13 05:22:52;;;;;;;40.38;25.80;;;;;;;-0.98;65.17;100664.03;5092248;28;20489;-50
2022/01/13 05:25:20;;;;;;;47.70;26.30;;;;;;;-0.88;65.58;100672.94;5090765;28;20507;-48
2022/01/13 05:27:46;;;;;;;36.33;23.80;;;;;;;-0.79;64.81;100669.88;5092103;28;20034;-49
2022/01/13 05:30:15;;;;;;;43.00;25.95;;;;;;;-0.84;64.96;100664.16;5090451;28;20040;-51
2022/01/13 05:32:41;;;;;;;34.00;23.42;;;;;;;-0.76;65.05;100671.50;5090663;28;20051;-47
2022/01/13 05:35:08;;;;;;;38.40;23.63;;;;;;;-0.66;64.15;100672.69;5091983;28;20058;-49
2022/01/13 05:37:34;;;;;;;39.00;24.70;;;;;;;-0.56;65.07;100670.44;5090624;28;20038;-47
2022/01/13 05:39:59;;;;;;;41.88;24.77;;;;;;;-0.50;64.20;100670.97;5090611;28;20028;-46
2022/01/13 05:42:25;;;;;;;38.45;25.27;;;;;;;-0.49;63.54;100682.94;5091885;28;20052;-48
2022/01/13 05:44:52;;;;;;;47.88;26.45;;;;;;;-0.59;63.48;100689.50;5090586;28;20093;-47
2022/01/13 05:47:17;;;;;;;43.83;25.40;;;;;;;-0.59;64.34;100680.94;5090586;28;20379;-49
2022/01/13 05:49:44;;;;;;;47.22;25.45;;;;;;;-0.62;63.76;100671.63;5091869;28;20028;-48
2022/01/13 05:52:11;;;;;;;43.90;25.38;;;;;;;-0.66;64.79;100675.25;5091709;28;20028;-49
2022/01/13 05:54:38;;;;;;;42.83;25.13;;;;;;;-0.69;64.57;100676.22;5091833;28;20012;-49
2022/01/13 05:57:04;;;;;;;39.08;24.23;;;;;;;-0.74;64.18;100672.25;5091783;28;20062;-49
2022/01/13 05:59:30;;;;;;;44.75;26.67;;;;;;;-0.86;65.00;100681.44;5091741;28;20074;-48
2022/01/13 06:01:57;;;;;;;43.78;27.20;;;;;;;-0.90;64.95;100675.59;5091694;28;20504;-48
2022/01/13 06:04:23;;;;;;;41.75;25.65;;;;;;;-0.88;65.43;100673.78;5091714;28;20021;-48
2022/01/13 06:06:48;;;;;;;42.78;25.55;;;;;;;-0.73;65.14;100671.31;5093944;28;20400;-49
2022/01/13 06:09:14;;;;;;;38.53;23.88;;;;;;;-0.60;64.66;100664.63;5095740;28;20031;-48
2022/01/13 06:11:44;;;;;;;39.95;25.30;;;;;;;-0.51;64.61;100671.88;5094348;28;20405;-48
2022/01/13 06:14:10;;;;;;;45.83;27.38;;;;;;;-0.50;64.67;100662.41;5095724;28;20063;-48
2022/01/13 06:16:36;;;;;;;41.05;24.65;;;;;;;-0.44;64.16;100662.09;5095686;28;20028;-48
2022/01/13 06:19:03;;;;;;;44.72;27.02;;;;;;;-0.40;64.55;100663.59;5095625;28;20024;-47
2022/01/13 06:21:28;;;;;;;53.08;26.42;;;;;;;-0.33;65.24;100664.09;5095605;28;20024;-49
2022/01/13 06:23:54;;;;;;;45.78;26.55;;;;;;;-0.25;65.04;100661.94;5095545;28;20089;-48
2022/01/13 06:26:20;;;;;;;58.17;29.95;;;;;;;-0.31;64.98;100662.25;5094098;28;20032;-49
2022/01/13 06:28:46;;;;;;;48.95;27.17;;;;;;;-0.28;64.84;100657.78;5095464;28;20016;-49
2022/01/13 06:31:11;;;;;;;45.05;28.17;;;;;;;-0.32;64.94;100668.31;5095058;28;20032;-49
2022/01/13 06:33:37;;;;;;;81.78;40.65;;;;;;;-0.31;65.98;100670.81;5095336;28;20486;-51
2022/01/13 06:36:07;;;;;;;96.18;69.47;;;;;;;-0.26;65.32;100670.59;5095222;28;20028;-49
2022/01/13 06:38:33;;;;;;;77.38;52.53;;;;;;;-0.28;65.73;100668.09;5095273;28;20051;-48
2022/01/13 06:41:01;;;;;;;61.53;39.42;;;;;;;-0.19;65.30;100671.91;5095189;28;20611;-49
2022/01/13 06:43:27;;;;;;;45.47;28.10;;;;;;;-0.15;65.39;100672.59;5095148;28;20547;-48
2022/01/13 06:45:53;;;;;;;47.35;28.13;;;;;;;-0.24;65.08;100679.91;5095065;28;20020;-49
2022/01/13 06:48:19;;;;;;;42.92;27.35;;;;;;;-0.22;64.96;100692.75;5095019;28;20024;-48
2022/01/13 06:50:45;;;;;;;42.67;26.52;;;;;;;-0.25;64.40;100690.31;5094883;28;20551;-48
2022/01/13 06:53:11;;;;;;;44.53;25.80;;;;;;;-0.19;65.27;100684.00;5095026;28;20203;-49
2022/01/13 06:55:36;;;;;;;48.40;27.15;;;;;;;0.08;64.98;100690.25;5094953;28;20028;-47
2022/01/13 06:58:03;;;;;;;48.45;27.40;;;;;;;0.06;63.99;100691.25;5094834;28;20497;-48
2022/01/13 07:00:28;;;;;;;52.13;28.50;;;;;;;-0.09;63.94;100698.91;5094842;28;20019;-48
2022/01/13 07:02:58;;;;;;;44.65;28.50;;;;;;;-0.18;65.07;100690.81;5094835;28;20028;-48
2022/01/13 07:05:24;;;;;;;47.95;30.17;;;;;;;-0.15;65.03;100694.06;5094713;28;20017;-48
2022/01/13 07:07:51;;;;;;;53.80;27.75;;;;;;;-0.06;65.44;100698.75;5094621;28;20043;-49
2022/01/13 07:10:16;;;;;;;53.38;29.25;;;;;;;0.04;64.67;100696.50;5094628;28;20158;-48
2022/01/13 07:12:42;;;;;;;59.10;28.30;;;;;;;0.13;65.29;100685.66;5094551;28;20540;-49
2022/01/13 07:15:10;;;;;;;47.05;28.38;;;;;;;0.17;64.91;100700.06;5093158;28;20024;-49
2022/01/13 07:17:37;;;;;;;48.78;26.70;;;;;;;0.49;65.80;100702.63;5092087;28;20020;-48
2022/01/13 07:20:04;;;;;;;51.45;32.67;;;;;;;0.86;64.81;100695.38;5094419;28;20024;-47
2022/01/13 07:22:30;;;;;;;52.45;28.08;;;;;;;1.06;64.42;100696.81;5094409;28;20038;-48
2022/01/13 07:24:55;;;;;;;48.20;28.58;;;;;;;1.26;63.48;100689.63;5094326;28;20028;-48
2022/01/13 07:27:22;;;;;;;58.28;38.30;;;;;;;1.47;63.16;100693.53;5094289;28;20020;-50
2022/01/13 07:29:48;;;;;;;40.05;26.63;;;;;;;1.63;62.86;100695.19;5094059;28;20528;-49
2022/01/13 07:32:18;;;;;;;43.30;26.60;;;;;;;1.86;62.00;100698.97;5094078;28;20020;-50
2022/01/13 07:34:44;;;;;;;47.30;26.33;;;;;;;2.10;61.81;100699.22;5094174;28;20035;-48
2022/01/13 07:37:09;;;;;;;39.88;24.63;;;;;;;2.36;61.56;100693.19;5092822;28;20028;-49
2022/01/13 07:39:35;;;;;;;44.10;24.98;;;;;;;2.64;61.37;100686.25;5094130;28;20390;-49
2022/01/13 07:42:03;;;;;;;37.10;24.90;;;;;;;2.94;60.92;100682.59;5093922;28;20032;-48
2022/01/13 07:44:29;;;;;;;40.83;25.10;;;;;;;3.20;60.75;100688.63;5094002;28;20107;-51
2022/01/13 07:46:56;;;;;;;43.08;24.77;;;;;;;3.36;59.79;100688.38;5093962;28;20127;-51
2022/01/13 07:49:22;;;;;;;39.65;24.67;;;;;;;3.27;58.80;100687.25;5093895;28;20024;-50
2022/01/13 07:51:48;;;;;;;38.85;25.48;;;;;;;3.17;59.26;100688.81;5093754;28;20022;-50
2022/01/13 07:54:13;;;;;;;41.58;24.60;;;;;;;3.23;59.62;100688.41;5093754;28;20064;-50
2022/01/13 07:56:39;;;;;;;35.92;24.33;;;;;;;3.30;59.33;100692.25;5092451;28;20047;-50
2022/01/13 07:59:05;;;;;;;49.88;27.20;;;;;;;3.26;58.67;100697.72;5092333;28;20084;-50
2022/01/13 08:01:31;;;;;;;48.05;26.63;;;;;;;3.12;58.16;100696.91;5093696;28;20031;-49
2022/01/13 08:03:56;;;;;;;40.70;25.40;;;;;;;3.15;58.59;100693.28;5092320;28;20516;-51
2022/01/13 08:06:22;;;;;;;45.50;27.63;;;;;;;3.26;58.48;100693.41;5093493;28;20038;-50
2022/01/13 08:08:48;;;;;;;44.40;24.73;;;;;;;3.36;57.85;100702.22;5093564;28;20027;-51
2022/01/13 08:11:13;;;;;;;51.50;25.35;;;;;;;3.31;57.90;100713.84;5092040;28;20024;-50
2022/01/13 08:13:39;;;;;;;42.13;25.40;;;;;;;3.38;58.11;100720.25;5093456;28;20524;-49
2022/01/13 08:16:09;;;;;;;54.25;29.60;;;;;;;3.31;57.00;100729.41;5093347;28;20023;-49
2022/01/13 08:21:22;;;;;;;36.95;25.63;;;;;;;2.82;58.22;100738.66;5093276;28;20092;-48
2022/01/13 08:23:49;;;;;;;39.42;25.33;;;;;;;2.84;58.51;100743.72;5093427;28;20036;-49
2022/01/13 08:26:17;;;;;;;46.95;26.73;;;;;;;3.04;58.32;100753.66;5093183;28;20101;-49
2022/01/13 08:28:42;;;;;;;37.97;26.35;;;;;;;3.19;57.87;100755.22;5091554;28;20436;-49
2022/01/13 08:31:08;;;;;;;35.42;25.02;;;;;;;3.09;57.80;100746.41;5092778;28;20048;-48
2022/01/13 08:33:36;;;;;;;58.08;27.38;;;;;;;2.99;57.90;100751.34;5093255;28;20048;-49
2022/01/13 08:36:03;;;;;;;35.42;24.80;;;;;;;3.11;58.36;100749.72;5092955;28;20537;-49
2022/01/13 08:38:28;;;;;;;39.25;25.45;;;;;;;3.30;58.21;100745.91;5091662;28;20031;-48
2022/01/13 08:40:57;;;;;;;46.70;25.30;;;;;;;3.48;57.74;100762.84;5092837;28;20383;-47
2022/01/13 08:43:24;;;;;;;55.97;26.77;;;;;;;3.63;57.74;100766.16;5092810;28;20444;-47
2022/01/13 08:45:51;;;;;;;69.78;40.17;;;;;;;3.66;57.52;100762.53;5093088;28;20034;-50
2022/01/13 08:48:18;;;;;;;38.50;26.38;;;;;;;3.65;56.99;100764.31;5092813;28;20099;-49
2022/01/13 08:50:46;;;;;;;40.53;25.33;;;;;;;3.49;57.30;100759.31;5091369;28;20470;-48
2022/01/13 08:53:15;;;;;;;41.03;26.50;;;;;;;3.45;57.54;100762.22;5091327;28;20031;-49
2022/01/13 08:55:41;;;;;;;44.97;30.50;;;;;;;3.57;57.66;100761.41;5092683;28;20032;-47
2022/01/13 08:58:07;;;;;;;36.85;26.38;;;;;;;3.78;57.50;100754.75;5092653;28;20027;-48
2022/01/13 09:00:36;;;;;;;38.33;24.45;;;;;;;3.85;56.48;100756.94;5092622;28;20073;-48
2022/01/13 09:03:07;;;;;;;35.13;26.42;;;;;;;3.74;57.15;100748.09;5091227;28;20024;-48
2022/01/13 09:05:35;;;;;;;39.03;26.13;;;;;;;3.78;57.00;100746.09;5092578;28;20028;-48
2022/01/13 09:08:04;;;;;;;40.90;25.73;;;;;;;3.84;57.19;100732.69;5092451;28;20016;-48
2022/01/13 09:10:29;;;;;;;40.53;23.48;;;;;;;4.00;57.30;100737.66;5092399;28;20032;-50
2022/01/13 09:12:55;;;;;;;43.45;32.08;;;;;;;4.21;56.61;100745.72;5091022;28;20043;-50
2022/01/13 09:15:37;;;;;;;57.03;28.45;;;;;;;4.20;56.40;100742.31;5092284;28;20095;-47
2022/01/13 09:18:10;;;;;;;38.33;26.60;;;;;;;4.17;56.06;100732.13;5092273;28;20024;-47
2022/01/13 09:20:38;;;;;;;34.75;24.17;;;;;;;4.18;56.12;100732.94;5092307;28;20042;-48
2022/01/13 09:23:04;;;;;;;36.22;25.92;;;;;;;4.31;56.24;100735.53;5092190;28;20024;-49
2022/01/13 09:25:31;;;;;;;34.55;23.88;;;;;;;4.46;55.55;100729.19;5092153;28;20028;-49
2022/01/13 09:27:57;;;;;;;38.40;27.23;;;;;;;4.16;55.23;100738.25;5092141;28;20073;-49
2022/01/13 09:30:22;;;;;;;43.10;25.70;;;;;;;3.96;56.63;100742.25;5091799;28;20448;-48
2022/01/13 09:32:48;;;;;;;40.90;26.63;;;;;;;3.91;56.18;100744.34;5090654;28;20111;-49
2022/01/13 09:35:14;;;;;;;42.70;26.45;;;;;;;4.08;56.06;100737.94;5091997;28;20455;-47
2022/01/13 09:37:40;;;;;;;37.40;26.35;;;;;;;4.30;55.65;100734.66;5090680;28;20028;-50
2022/01/13 09:40:07;;;;;;;35.72;25.90;;;;;;;4.41;55.69;100733.91;5090024;28;20036;-49
2022/01/13 09:42:35;;;;;;;44.95;26.60;;;;;;;4.38;55.64;100742.75;5090632;28;20081;-48
2022/01/13 09:45:03;;;;;;;41.33;28.02;;;;;;;4.46;55.69;100739.59;5090594;28;20039;-49
2022/01/13 09:47:30;;;;;;;40.08;30.00;;;;;;;4.37;55.24;100735.91;5091947;28;20069;-48
2022/01/13 09:49:57;;;;;;;34.08;27.67;;;;;;;4.16;55.89;100735.63;5091917;28;20032;-48
2022/01/13 09:52:22;;;;;;;35.63;25.80;;;;;;;4.34;56.00;100746.50;5091746;28;20031;-48
2022/01/13 09:54:49;;;;;;;40.17;26.02;;;;;;;4.42;55.67;100752.94;5091895;28;20028;-48
2022/01/13 09:57:15;;;;;;;48.95;27.98;;;;;;;4.46;55.38;100768.19;5090460;28;20020;-48
2022/01/13 09:59:41;;;;;;;45.58;26.70;;;;;;;4.55;55.30;100759.75;5092071;28;20416;-49
2022/01/13 10:02:07;;;;;;;43.40;26.88;;;;;;;4.58;55.21;100748.28;5090450;28;20032;-48
2022/01/13 10:04:53;;;;;;;40.72;27.17;;;;;;;4.59;55.51;100742.16;5090433;28;20043;-47
2022/01/13 10:07:46;;;;;;;35.65;26.77;;;;;;;4.85;54.66;100748.09;5091669;28;20035;-48
2022/01/13 10:10:15;;;;;;;41.15;25.95;;;;;;;4.78;54.26;100752.06;5091668;28;20028;-48
2022/01/13 10:12:47;;;;;;;46.15;28.00;;;;;;;4.79;54.35;100741.53;5091569;28;20078;-48
2022/01/13 10:18:05;;;;;;;42.85;27.10;;;;;;;5.00;54.04;100736.53;5091898;28;20507;-49
2022/01/13 10:20:32;;;;;;;41.50;26.23;;;;;;;5.02;53.67;100735.59;5091536;28;20038;-49
2022/01/13 10:23:09;;;;;;;40.72;27.10;;;;;;;4.88;54.04;100734.00;5091566;28;20581;-50
2022/01/13 10:25:45;;;;;;;37.05;26.10;;;;;;;4.87;54.38;100724.53;5091597;28;20039;-48
2022/01/13 10:28:22;;;;;;;30.92;25.15;;;;;;;5.02;54.37;100731.22;5091597;28;20443;-48
2022/01/13 10:30:53;;;;;;;36.30;26.65;;;;;;;5.08;53.46;100722.94;5091070;28;20510;-48
2022/01/13 10:33:25;;;;;;;35.20;26.45;;;;;;;5.17;53.90;100724.03;5090182;28;20529;-48
2022/01/13 10:35:54;;;;;;;39.80;29.58;;;;;;;5.37;53.13;100725.13;5091710;28;20040;-48
2022/01/13 10:38:21;;;;;;;38.90;27.77;;;;;;;5.36;52.73;100721.69;5091403;28;20073;-49
2022/01/13 10:40:49;;;;;;;35.45;25.30;;;;;;;5.57;53.03;100711.44;5091392;28;20028;-49
2022/01/13 10:43:20;;;;;;;36.58;26.02;;;;;;;5.77;52.93;100701.22;5091414;28;20016;-47
2022/01/13 10:45:53;;;;;;;39.40;26.33;;;;;;;5.99;51.91;100713.44;5091429;28;20024;-48
2022/01/13 10:48:22;;;;;;;40.80;26.20;;;;;;;5.97;52.00;100715.34;5090026;28;20035;-48
2022/01/13 10:51:06;;;;;;;34.75;24.98;;;;;;;6.07;51.39;100710.25;5089934;28;20493;-48
2022/01/13 10:53:37;;;;;;;38.08;25.10;;;;;;;6.20;52.21;100710.94;5095049;28;20024;-49
2022/01/13 10:56:06;;;;;;;37.22;26.55;;;;;;;6.47;51.23;100704.47;5095015;28;20059;-48
2022/01/13 10:58:37;;;;;;;39.00;28.90;;;;;;;6.63;50.53;100704.88;5093604;28;20031;-48
2022/01/13 11:01:05;;;;;;;47.63;28.98;;;;;;;6.38;50.14;100703.44;5094860;28;20032;-48
2022/01/13 11:03:34;;;;;;;39.58;28.23;;;;;;;6.16;50.73;100697.31;5093518;28;20023;-49
2022/01/13 11:06:05;;;;;;;33.83;27.00;;;;;;;6.19;51.38;100707.47;5094768;28;20123;-49
2022/01/13 11:08:42;;;;;;;36.03;26.77;;;;;;;6.23;51.32;100707.25;5094769;28;20103;-49
2022/01/13 11:11:27;;;;;;;35.90;27.08;;;;;;;6.27;50.19;100693.84;5094648;28;20028;-49
2022/01/13 11:14:03;;;;;;;35.80;26.75;;;;;;;6.18;50.67;100695.41;5093291;28;20028;-49
2022/01/13 11:16:30;;;;;;;38.92;25.08;;;;;;;6.02;50.68;100705.41;5093283;28;20032;-49
2022/01/13 11:18:57;;;;;;;40.10;26.65;;;;;;;5.78;50.88;100702.91;5094573;28;20031;-50
2022/01/13 11:21:25;;;;;;;36.55;26.67;;;;;;;5.70;51.59;100700.88;5094442;28;20520;-49
2022/01/13 11:23:53;;;;;;;39.03;27.00;;;;;;;5.73;51.53;100703.25;5094709;28;20039;-48
2022/01/13 11:26:20;;;;;;;32.40;26.20;;;;;;;5.76;51.05;100702.19;5094354;28;20028;-49
2022/01/13 11:28:45;;;;;;;37.53;26.20;;;;;;;5.85;50.71;100705.84;5092971;28;20023;-48
2022/01/13 11:31:12;;;;;;;36.78;26.70;;;;;;;5.90;50.95;100701.13;5092689;28;20044;-48
2022/01/13 11:33:38;;;;;;;35.63;28.05;;;;;;;5.87;50.82;100696.97;5092924;28;20028;-48
2022/01/13 11:36:07;;;;;;;38.30;29.02;;;;;;;5.90;51.02;100690.69;5092824;28;20448;-48
2022/01/13 11:38:33;;;;;;;35.13;26.58;;;;;;;6.00;51.32;100686.44;5094145;28;20020;-48
2022/01/13 11:41:07;;;;;;;35.45;26.65;;;;;;;6.08;50.90;100683.25;5092764;28;20035;-49